Time;durP1;ratioP1;P1;durP2;ratioP2;P2;SDS_P1;SDS_P2;PMS_P1;PMS_P2;Temp;Humidity;BMP_temperature;BMP_pressure;BME280_temperature;BME280_humidity;BME280_pressure;Samples;Min_cycle;Max_cycle;Signal;HPM_P1;HPM_P2
2021/08/05 00:00:31;;;;;;;;;;;;;;;;;;5050897;28;20308;-68
2021/08/05 00:02:58;;;;;;;;;;;;;;;;;;5049308;28;19925;-68
2021/08/05 00:05:25;;;;;;;;;;;;;;;;;;5049982;28;19935;-68
2021/08/05 00:07:52;;;;;;;;;;;;;;;;;;5047748;28;19931;-67
2021/08/05 00:10:19;;;;;;;;;;;;;;;;;;5049361;28;19925;-68
2021/08/05 00:12:46;;;;;;;;;;;;;;;;;;5047834;28;19924;-69
2021/08/05 00:15:13;;;;;;;;;;;;;;;;;;5050411;28;19933;-67
2021/08/05 00:17:40;;;;;;;;;;;;;;;;;;5044268;28;20520;-68
2021/08/05 00:20:07;;;;;;;;;;;;;;;;;;5047793;28;19925;-68
2021/08/05 00:22:34;;;;;;;;;;;;;;;;;;5051617;28;19925;-69
2021/08/05 00:25:01;;;;;;;;;;;;;;;;;;5049435;28;19924;-68
2021/08/05 00:27:27;;;;;;;;;;;;;;;;;;5042350;28;19937;-68
2021/08/05 00:29:54;;;;;;;;;;;;;;;;;;5047527;28;19925;-68
2021/08/05 00:32:21;;;;;;;;;;;;;;;;;;5047055;28;19940;-69
2021/08/05 00:34:48;;;;;;;;;;;;;;;;;;5047722;28;19931;-69
2021/08/05 00:37:15;;;;;;;;;;;;;;;;;;5046131;28;19947;-69
2021/08/05 00:39:42;;;;;;;;;;;;;;;;;;5044178;28;20020;-69
2021/08/05 00:42:09;;;;;;;;;;;;;;;;;;5049287;28;20420;-68
2021/08/05 00:44:37;;;;;;;;;;;;;;;;;;5044974;28;20286;-68
2021/08/05 00:47:04;;;;;;;;;;;;;;;;;;5050392;28;20417;-68
2021/08/05 00:49:30;;;;;;;;;;;;;;;;;;5050256;28;19924;-68
2021/08/05 00:51:57;;;;;;;;;;;;;;;;;;5050508;28;19990;-68
2021/08/05 00:54:24;;;;;;;;;;;;;;;;;;5047186;28;20139;-69
2021/08/05 00:56:51;;;;;;;;;;;;;;;;;;5047721;28;19929;-68
2021/08/05 00:59:18;;;;;;;;;;;;;;;;;;5041649;28;20312;-69
2021/08/05 01:01:45;;;;;;;;;;;;;;;;;;5043413;28;20003;-68
2021/08/05 01:04:12;;;;;;;;;;;;;;;;;;5044368;28;20420;-68
2021/08/05 01:06:39;;;;;;;;;;;;;;;;;;5050156;28;19925;-69
2021/08/05 01:09:06;;;;;;;;;;;;;;;;;;5044089;28;19924;-68
2021/08/05 01:11:33;;;;;;;;;;;;;;;;;;5046563;28;19932;-69
2021/08/05 01:14:00;;;;;;;;;;;;;;;;;;5044114;28;19929;-69
2021/08/05 01:16:27;;;;;;;;;;;;;;;;;;5047289;28;20299;-68
2021/08/05 01:18:54;;;;;;;;;;;;;;;;;;5050020;28;19948;-70
2021/08/05 01:21:21;;;;;;;;;;;;;;;;;;5047106;28;19924;-68
2021/08/05 01:23:48;;;;;;;;;;;;;;;;;;5042820;28;19931;-69
2021/08/05 01:26:15;;;;;;;;;;;;;;;;;;5043530;28;19968;-68
2021/08/05 01:28:42;;;;;;;;;;;;;;;;;;5045290;28;19935;-68
2021/08/05 01:31:09;;;;;;;;;;;;;;;;;;5046404;28;19970;-68
2021/08/05 01:33:37;;;;;;;;;;;;;;;;;;5046970;28;19924;-68
2021/08/05 01:36:04;;;;;;;;;;;;;;;;;;5045214;28;20030;-68
2021/08/05 01:38:31;;;;;;;;;;;;;;;;;;5044242;28;19947;-68
2021/08/05 01:40:58;;;;;;;;;;;;;;;;;;5038870;28;19932;-68
2021/08/05 01:43:25;;;;;;;;;;;;;;;;;;5038275;28;19947;-69
2021/08/05 01:45:52;;;;;;;;;;;;;;;;;;5047404;28;19924;-68
2021/08/05 01:48:19;;;;;;;;;;;;;;;;;;5040765;28;19925;-68
2021/08/05 01:50:46;;;;;;;;;;;;;;;;;;5044195;28;19932;-69
2021/08/05 01:53:13;;;;;;;;;;;;;;;;;;5041184;28;19936;-69
2021/08/05 01:55:40;;;;;;;;;;;;;;;;;;5042227;28;19925;-69
2021/08/05 01:58:07;;;;;;;;;;;;;;;;;;5043571;28;19929;-68
2021/08/05 02:00:34;;;;;;;;;;;;;;;;;;5046814;28;20407;-69
2021/08/05 02:03:01;;;;;;;;;;;;;;;;;;5043040;28;20027;-69
2021/08/05 02:05:28;;;;;;;;;;;;;;;;;;5044619;28;19935;-69
2021/08/05 02:07:55;;;;;;;;;;;;;;;;;;5035337;28;19925;-68
2021/08/05 02:10:22;;;;;;;;;;;;;;;;;;5043147;28;20411;-68
2021/08/05 02:12:48;;;;;;;;;;;;;;;;;;5040346;28;19931;-69
2021/08/05 02:15:15;;;;;;;;;;;;;;;;;;5043412;28;19932;-68
2021/08/05 02:17:42;;;;;;;;;;;;;;;;;;5042628;28;20526;-68
2021/08/05 02:20:09;;;;;;;;;;;;;;;;;;5048448;28;19928;-69
2021/08/05 02:22:36;;;;;;;;;;;;;;;;;;5043156;28;19925;-69
2021/08/05 02:25:03;;;;;;;;;;;;;;;;;;5042810;28;20075;-68
2021/08/05 02:27:30;;;;;;;;;;;;;;;;;;5041462;28;20270;-68
2021/08/05 02:29:57;;;;;;;;;;;;;;;;;;5044021;28;19925;-68
2021/08/05 02:32:24;;;;;;;;;;;;;;;;;;5047644;28;19924;-68
2021/08/05 02:34:51;;;;;;;;;;;;;;;;;;5045232;28;19925;-68
2021/08/05 02:37:18;;;;;;;;;;;;;;;;;;5048305;28;19931;-68
2021/08/05 02:39:45;;;;;;;;;;;;;;;;;;5048273;28;20415;-68
2021/08/05 02:42:12;;;;;;;;;;;;;;;;;;5040523;28;20250;-68
2021/08/05 02:44:39;;;;;;;;;;;;;;;;;;5047529;28;19943;-68
2021/08/05 02:47:06;;;;;;;;;;;;;;;;;;5050749;28;19925;-68
2021/08/05 02:49:33;;;;;;;;;;;;;;;;;;5051451;28;19971;-68
2021/08/05 02:52:00;;;;;;;;;;;;;;;;;;5049495;28;19987;-68
2021/08/05 02:54:27;;;;;;;;;;;;;;;;;;5050341;28;19931;-68
2021/08/05 02:56:54;;;;;;;;;;;;;;;;;;5049776;28;19925;-69
2021/08/05 02:59:21;;;;;;;;;;;;;;;;;;5046088;28;20333;-68
2021/08/05 03:01:48;;;;;;;;;;;;;;;;;;5048921;28;19933;-69
2021/08/05 03:04:15;;;;;;;;;;;;;;;;;;5044589;28;19929;-68
2021/08/05 03:06:42;;;;;;;;;;;;;;;;;;5045523;28;19924;-68
2021/08/05 03:09:08;;;;;;;;;;;;;;;;;;5052079;28;19925;-68
2021/08/05 03:11:35;;;;;;;;;;;;;;;;;;5049420;28;19925;-68
2021/08/05 03:14:02;;;;;;;;;;;;;;;;;;5052556;28;20034;-68
2021/08/05 03:16:29;;;;;;;;;;;;;;;;;;5045981;28;20007;-68
2021/08/05 03:18:56;;;;;;;;;;;;;;;;;;5047156;28;19931;-68
2021/08/05 03:21:23;;;;;;;;;;;;;;;;;;5051336;28;19939;-68
2021/08/05 03:23:50;;;;;;;;;;;;;;;;;;5051401;28;19924;-68
2021/08/05 03:26:17;;;;;;;;;;;;;;;;;;5046805;28;19925;-68
2021/08/05 03:28:44;;;;;;;;;;;;;;;;;;5044281;28;19925;-68
2021/08/05 03:31:11;;;;;;;;;;;;;;;;;;5040579;28;19932;-68
2021/08/05 03:33:38;;;;;;;;;;;;;;;;;;5048745;28;19933;-68
2021/08/05 03:36:05;;;;;;;;;;;;;;;;;;5044317;28;20312;-68
2021/08/05 03:38:32;;;;;;;;;;;;;;;;;;5048471;28;20023;-68
2021/08/05 03:41:01;;;;;;;;;;;;;;;;;;5044859;28;19925;-68
2021/08/05 03:43:28;;;;;;;;;;;;;;;;;;5045189;28;19929;-68
2021/08/05 03:45:55;;;;;;;;;;;;;;;;;;5045092;28;19925;-68
2021/08/05 03:48:22;;;;;;;;;;;;;;;;;;5050787;28;19931;-68
2021/08/05 03:50:49;;;;;;;;;;;;;;;;;;5048769;28;19925;-68
2021/08/05 03:53:16;;;;;;;;;;;;;;;;;;5049502;28;19947;-67
2021/08/05 03:55:42;;;;;;;;;;;;;;;;;;5041594;28;19929;-68
2021/08/05 03:58:10;;;;;;;;;;;;;;;;;;5051356;28;20117;-68
2021/08/05 04:00:37;;;;;;;;;;;;;;;;;;5043683;28;19928;-68
2021/08/05 04:03:04;;;;;;;;;;;;;;;;;;5048215;28;19932;-68
2021/08/05 04:05:31;;;;;;;;;;;;;;;;;;5045925;28;19931;-68
2021/08/05 04:07:58;;;;;;;;;;;;;;;;;;5046646;28;19929;-68
2021/08/05 04:10:24;;;;;;;;;;;;;;;;;;5042202;28;20012;-68
2021/08/05 04:12:51;;;;;;;;;;;;;;;;;;5044778;28;20279;-68
2021/08/05 04:15:18;;;;;;;;;;;;;;;;;;5047173;28;20403;-68
2021/08/05 04:17:45;;;;;;;;;;;;;;;;;;5044376;28;19925;-69
2021/08/05 04:20:12;;;;;;;;;;;;;;;;;;5051420;28;19936;-69
2021/08/05 04:22:39;;;;;;;;;;;;;;;;;;5048009;28;20051;-68
2021/08/05 04:25:06;;;;;;;;;;;;;;;;;;5048970;28;20518;-68
2021/08/05 04:27:33;;;;;;;;;;;;;;;;;;5047728;28;19936;-68
2021/08/05 04:30:00;;;;;;;;;;;;;;;;;;5044731;28;19976;-68
2021/08/05 04:32:27;;;;;;;;;;;;;;;;;;5049266;28;19925;-68
2021/08/05 04:34:54;;;;;;;;;;;;;;;;;;5039550;28;19933;-68
2021/08/05 04:37:21;;;;;;;;;;;;;;;;;;5049512;28;19925;-68
2021/08/05 04:39:48;;;;;;;;;;;;;;;;;;5047057;28;19925;-68
2021/08/05 04:42:14;;;;;;;;;;;;;;;;;;5044824;28;20019;-68
2021/08/05 04:44:41;;;;;;;;;;;;;;;;;;5044374;28;20020;-69
2021/08/05 04:47:08;;;;;;;;;;;;;;;;;;5042017;28;19947;-70
2021/08/05 04:49:35;;;;;;;;;;;;;;;;;;5044560;28;20011;-67
2021/08/05 04:52:02;;;;;;;;;;;;;;;;;;5042975;28;19947;-69
2021/08/05 04:54:29;;;;;;;;;;;;;;;;;;5048216;28;20363;-68
2021/08/05 04:56:56;;;;;;;;;;;;;;;;;;5048237;28;19928;-69
2021/08/05 04:59:23;;;;;;;;;;;;;;;;;;5049967;28;19929;-68
2021/08/05 05:01:50;;;;;;;;;;;;;;;;;;5049683;28;19924;-68
2021/08/05 05:04:17;;;;;;;;;;;;;;;;;;5048391;28;19932;-68
2021/08/05 05:06:44;;;;;;;;;;;;;;;;;;5038737;28;19932;-68
2021/08/05 05:09:11;;;;;;;;;;;;;;;;;;5046829;28;19932;-67
2021/08/05 05:11:38;;;;;;;;;;;;;;;;;;5038526;28;20289;-67
2021/08/05 05:14:05;;;;;;;;;;;;;;;;;;5048738;28;20398;-67
2021/08/05 05:16:32;;;;;;;;;;;;;;;;;;5050562;28;19939;-68
2021/08/05 05:18:59;;;;;;;;;;;;;;;;;;5048513;28;19925;-69
2021/08/05 05:21:26;;;;;;;;;;;;;;;;;;5048982;28;19924;-68
2021/08/05 05:23:52;;;;;;;;;;;;;;;;;;5046419;28;19932;-69
2021/08/05 05:26:19;;;;;;;;;;;;;;;;;;5046105;28;19952;-69
2021/08/05 05:28:46;;;;;;;;;;;;;;;;;;5039419;28;19936;-67
2021/08/05 05:31:13;;;;;;;;;;;;;;;;;;5034848;28;19935;-66
2021/08/05 05:33:40;;;;;;;;;;;;;;;;;;5042871;28;19925;-66
2021/08/05 05:36:07;;;;;;;;;;;;;;;;;;5040810;28;19925;-68
2021/08/05 05:38:34;;;;;;;;;;;;;;;;;;5035802;28;19929;-67
2021/08/05 05:41:01;;;;;;;;;;;;;;;;;;5034710;28;19932;-66
2021/08/05 05:43:28;;;;;;;;;;;;;;;;;;5050468;28;19943;-68
2021/08/05 05:45:55;;;;;;;;;;;;;;;;;;5047244;28;20480;-67
2021/08/05 05:48:22;;;;;;;;;;;;;;;;;;5045395;28;20313;-66
2021/08/05 05:50:49;;;;;;;;;;;;;;;;;;5038138;28;20015;-68
2021/08/05 05:53:16;;;;;;;;;;;;;;;;;;5040087;28;20317;-68
2021/08/05 05:55:43;;;;;;;;;;;;;;;;;;5043547;28;19929;-68
2021/08/05 05:58:10;;;;;;;;;;;;;;;;;;5046128;28;19929;-68
2021/08/05 06:00:37;;;;;;;;;;;;;;;;;;5042461;28;19931;-68
2021/08/05 06:03:05;;;;;;;;;;;;;;;;;;5036983;28;19925;-69
2021/08/05 06:05:32;;;;;;;;;;;;;;;;;;5046010;28;20304;-66
2021/08/05 06:07:59;;;;;;;;;;;;;;;;;;5046404;28;19925;-68
2021/08/05 06:10:26;;;;;;;;;;;;;;;;;;5044753;28;19925;-66
2021/08/05 06:12:53;;;;;;;;;;;;;;;;;;5045115;28;19929;-69
2021/08/05 06:15:20;;;;;;;;;;;;;;;;;;5042742;28;20297;-67
2021/08/05 06:17:47;;;;;;;;;;;;;;;;;;5041188;28;19925;-66
2021/08/05 06:20:14;;;;;;;;;;;;;;;;;;5044643;28;19925;-67
2021/08/05 06:22:42;;;;;;;;;;;;;;;;;;5043552;28;19925;-67
2021/08/05 06:25:09;;;;;;;;;;;;;;;;;;5036628;28;20311;-68
2021/08/05 06:27:36;;;;;;;;;;;;;;;;;;5046272;28;19933;-67
2021/08/05 06:30:03;;;;;;;;;;;;;;;;;;5046345;28;20294;-67
2021/08/05 06:32:30;;;;;;;;;;;;;;;;;;5047807;28;19988;-69
2021/08/05 06:34:57;;;;;;;;;;;;;;;;;;5038391;28;19925;-68
2021/08/05 06:37:24;;;;;;;;;;;;;;;;;;5044593;28;19943;-68
2021/08/05 06:39:51;;;;;;;;;;;;;;;;;;5032064;28;19933;-68
2021/08/05 06:42:18;;;;;;;;;;;;;;;;;;5043795;28;20036;-70
2021/08/05 06:44:45;;;;;;;;;;;;;;;;;;5042839;28;19933;-65
2021/08/05 06:47:12;;;;;;;;;;;;;;;;;;5044341;28;19931;-67
2021/08/05 06:49:39;;;;;;;;;;;;;;;;;;5037902;28;19936;-66
2021/08/05 06:52:06;;;;;;;;;;;;;;;;;;5046890;28;19928;-66
2021/08/05 06:54:33;;;;;;;;;;;;;;;;;;5045772;28;19929;-66
2021/08/05 06:57:00;;;;;;;;;;;;;;;;;;5044775;28;19979;-65
2021/08/05 06:59:27;;;;;;;;;;;;;;;;;;5045460;28;19924;-66
2021/08/05 07:01:54;;;;;;;;;;;;;;;;;;5045441;28;19939;-66
2021/08/05 07:04:21;;;;;;;;;;;;;;;;;;5043708;28;19925;-66
2021/08/05 07:06:48;;;;;;;;;;;;;;;;;;5044606;28;19937;-66
2021/08/05 07:09:15;;;;;;;;;;;;;;;;;;5041681;28;20296;-66
2021/08/05 07:11:41;;;;;;;;;;;;;;;;;;5043931;28;19925;-66
2021/08/05 07:14:09;;;;;;;;;;;;;;;;;;5043814;28;19925;-66
2021/08/05 07:16:36;;;;;;;;;;;;;;;;;;5044738;28;19935;-65
2021/08/05 07:19:03;;;;;;;;;;;;;;;;;;5044824;28;19932;-66
2021/08/05 07:21:29;;;;;;;;;;;;;;;;;;5044997;28;19931;-67
2021/08/05 07:23:57;;;;;;;;;;;;;;;;;;5042008;28;19929;-66
2021/08/05 07:26:24;;;;;;;;;;;;;;;;;;5043419;28;19925;-66
2021/08/05 07:28:51;;;;;;;;;;;;;;;;;;5047239;28;19931;-65
2021/08/05 07:31:18;;;;;;;;;;;;;;;;;;5048320;28;20422;-66
2021/08/05 07:33:47;;;;;;;;;;;;;;;;;;5045732;28;19933;-66
2021/08/05 07:36:14;;;;;;;;;;;;;;;;;;5052604;28;19939;-65
2021/08/05 07:38:41;;;;;;;;;;;;;;;;;;5050366;28;20373;-67
2021/08/05 07:41:08;;;;;;;;;;;;;;;;;;5049228;28;19925;-66
2021/08/05 07:43:35;;;;;;;;;;;;;;;;;;5050428;28;19932;-65
2021/08/05 07:46:02;;;;;;;;;;;;;;;;;;5049156;28;19933;-67
2021/08/05 07:48:29;;;;;;;;;;;;;;;;;;5046393;28;20415;-67
2021/08/05 07:50:56;;;;;;;;;;;;;;;;;;5044000;28;20397;-66
2021/08/05 07:53:23;;;;;;;;;;;;;;;;;;5050109;28;20023;-66
2021/08/05 07:55:50;;;;;;;;;;;;;;;;;;5047502;28;19936;-65
2021/08/05 07:58:17;;;;;;;;;;;;;;;;;;5048217;28;20278;-67
2021/08/05 08:00:44;;;;;;;;;;;;;;;;;;5048452;28;20035;-67
2021/08/05 08:03:11;;;;;;;;;;;;;;;;;;5049876;28;20046;-66
2021/08/05 08:05:39;;;;;;;;;;;;;;;;;;5048211;28;19929;-66
2021/08/05 08:08:06;;;;;;;;;;;;;;;;;;5043184;28;19925;-66
2021/08/05 08:10:33;;;;;;;;;;;;;;;;;;5038790;28;19951;-65
2021/08/05 08:13:00;;;;;;;;;;;;;;;;;;5049384;28;19931;-66
2021/08/05 08:15:27;;;;;;;;;;;;;;;;;;5047009;28;19925;-66
2021/08/05 08:17:54;;;;;;;;;;;;;;;;;;5047087;28;20312;-66
2021/08/05 08:20:21;;;;;;;;;;;;;;;;;;5047949;28;19931;-66
2021/08/05 08:22:48;;;;;;;;;;;;;;;;;;5050391;28;19931;-66
2021/08/05 08:25:15;;;;;;;;;;;;;;;;;;5050256;28;20290;-67
2021/08/05 08:27:42;;;;;;;;;;;;;;;;;;5057817;28;19925;-68
2021/08/05 08:30:10;;;;;;;;;;;;;;;;;;5058839;28;19925;-66
2021/08/05 08:32:37;;;;;;;;;;;;;;;;;;5051760;28;19948;-65
2021/08/05 08:35:03;;;;;;;;;;;;;;;;;;5046875;28;19929;-66
2021/08/05 08:37:31;;;;;;;;;;;;;;;;;;5050867;28;19925;-66
2021/08/05 08:39:58;;;;;;;;;;;;;;;;;;5041446;28;20064;-66
2021/08/05 08:42:25;;;;;;;;;;;;;;;;;;5042966;28;19953;-66
2021/08/05 08:44:52;;;;;;;;;;;;;;;;;;5048254;28;19932;-65
2021/08/05 08:47:18;;;;;;;;;;;;;;;;;;5047506;28;19951;-67
2021/08/05 08:49:45;;;;;;;;;;;;;;;;;;5043855;28;19931;-64
2021/08/05 08:52:13;;;;;;;;;;;;;;;;;;5042267;28;19975;-69
2021/08/05 08:54:43;;;;;;;;;;;;;;;;;;5046788;28;19932;-68
2021/08/05 08:57:10;;;;;;;;;;;;;;;;;;5040464;28;20062;-67
2021/08/05 08:59:37;;;;;;;;;;;;;;;;;;5045505;28;19933;-67
2021/08/05 09:02:04;;;;;;;;;;;;;;;;;;5047306;28;20388;-67
2021/08/05 09:04:31;;;;;;;;;;;;;;;;;;5043533;28;19947;-69
2021/08/05 09:06:58;;;;;;;;;;;;;;;;;;5032745;28;19931;-69
2021/08/05 09:09:25;;;;;;;;;;;;;;;;;;5043925;28;20516;-67
2021/08/05 09:11:52;;;;;;;;;;;;;;;;;;5050881;28;19924;-69
2021/08/05 09:14:19;;;;;;;;;;;;;;;;;;5053933;28;20031;-68
2021/08/05 09:16:46;;;;;;;;;;;;;;;;;;5045132;28;20426;-68
2021/08/05 09:19:14;;;;;;;;;;;;;;;;;;5047912;28;20304;-68
2021/08/05 09:21:40;;;;;;;;;;;;;;;;;;5046089;28;19935;-67
2021/08/05 09:24:09;;;;;;;;;;;;;;;;;;5046336;28;19933;-67
2021/08/05 09:26:37;;;;;;;;;;;;;;;;;;5045647;28;20372;-69
2021/08/05 09:29:04;;;;;;;;;;;;;;;;;;5045589;28;20407;-69
2021/08/05 09:31:31;;;;;;;;;;;;;;;;;;5043423;28;20008;-69
2021/08/05 09:33:58;;;;;;;;;;;;;;;;;;5046029;28;19933;-67
2021/08/05 09:36:25;;;;;;;;;;;;;;;;;;5041290;28;20019;-67
2021/08/05 09:38:52;;;;;;;;;;;;;;;;;;5042985;28;20028;-68
2021/08/05 09:41:19;;;;;;;;;;;;;;;;;;5039890;22;19930;-66
2021/08/05 09:43:46;;;;;;;;;;;;;;;;;;5011541;28;20297;-68
2021/08/05 09:46:14;;;;;;;;;;;;;;;;;;5013800;28;19926;-66
2021/08/05 09:48:41;;;;;;;;;;;;;;;;;;5008579;28;19933;-67
2021/08/05 09:51:08;;;;;;;;;;;;;;;;;;5008955;28;19925;-66
2021/08/05 09:53:35;;;;;;;;;;;;;;;;;;5009282;28;19926;-67
2021/08/05 09:56:02;;;;;;;;;;;;;;;;;;5008856;28;19936;-67
2021/08/05 09:58:29;;;;;;;;;;;;;;;;;;5009075;28;19932;-68
2021/08/05 10:00:56;;;;;;;;;;;;;;;;;;5008868;28;19933;-68
2021/08/05 10:03:23;;;;;;;;;;;;;;;;;;5009129;28;19947;-68
2021/08/05 10:05:50;;;;;;;;;;;;;;;;;;5009677;28;19925;-68
2021/08/05 10:08:17;;;;;;;;;;;;;;;;;;5009441;28;19926;-68
2021/08/05 10:10:44;;;;;;;;;;;;;;;;;;5011236;28;20325;-67
2021/08/05 10:13:11;;;;;;;;;;;;;;;;;;5013483;28;19936;-68
2021/08/05 10:15:38;;;;;;;;;;;;;;;;;;5013229;28;19925;-66
2021/08/05 10:18:05;;;;;;;;;;;;;;;;;;5007451;28;19937;-67
2021/08/05 10:20:32;;;;;;;;;;;;;;;;;;5009463;28;19925;-67
2021/08/05 10:23:00;;;;;;;;;;;;;;;;;;5009703;28;19929;-66
2021/08/05 10:25:27;;;;;;;;;;;;;;;;;;5012111;28;19947;-70
2021/08/05 10:27:54;;;;;;;;;;;;;;;;;;5010230;28;19926;-67
2021/08/05 10:30:21;;;;;;;;;;;;;;;;;;5011872;28;19933;-67
2021/08/05 10:32:48;;;;;;;;;;;;;;;;;;5008645;28;19925;-66
2021/08/05 10:35:15;;;;;;;;;;;;;;;;;;5014388;28;19971;-67
2021/08/05 10:37:42;;;;;;;;;;;;;;;;;;5013868;28;20480;-66
2021/08/05 10:40:09;;;;;;;;;;;;;;;;;;5011477;28;19929;-68
2021/08/05 10:42:36;;;;;;;;;;;;;;;;;;5010891;28;19929;-66
2021/08/05 10:45:03;;;;;;;;;;;;;;;;;;5005750;28;19930;-67
2021/08/05 10:47:30;;;;;;;;;;;;;;;;;;5007918;28;20390;-68
2021/08/05 10:49:57;;;;;;;;;;;;;;;;;;5012806;28;19925;-67
2021/08/05 10:52:24;;;;;;;;;;;;;;;;;;5011212;28;20032;-67
2021/08/05 10:54:51;;;;;;;;;;;;;;;;;;5013548;28;19941;-67
2021/08/05 10:57:18;;;;;;;;;;;;;;;;;;5012405;28;20274;-67
2021/08/05 10:59:45;;;;;;;;;;;;;;;;;;5011312;28;20016;-68
2021/08/05 11:02:12;;;;;;;;;;;;;;;;;;5010652;28;19952;-68
2021/08/05 11:04:39;;;;;;;;;;;;;;;;;;5012513;28;19925;-66
2021/08/05 11:07:06;;;;;;;;;;;;;;;;;;5007348;28;19933;-67
2021/08/05 11:09:34;;;;;;;;;;;;;;;;;;5011748;28;19926;-67
2021/08/05 11:12:01;;;;;;;;;;;;;;;;;;5012047;28;19930;-67
2021/08/05 11:14:28;;;;;;;;;;;;;;;;;;5020189;28;19932;-67
2021/08/05 11:16:55;;;;;;;;;;;;;;;;;;5013436;28;20477;-66
2021/08/05 11:19:22;;;;;;;;;;;;;;;;;;5012258;28;19932;-66
2021/08/05 11:21:49;;;;;;;;;;;;;;;;;;5012346;28;19926;-67
2021/08/05 11:24:16;;;;;;;;;;;;;;;;;;5003643;28;20378;-67
2021/08/05 11:26:43;;;;;;;;;;;;;;;;;;5014733;28;20296;-66
2021/08/05 11:29:10;;;;;;;;;;;;;;;;;;5015504;28;20393;-66
2021/08/05 11:31:38;;;;;;;;;;;;;;;;;;5015824;28;19926;-67
2021/08/05 11:34:09;;;;;;;;;;;;;;;;;;5013796;28;19929;-66
2021/08/05 11:36:36;;;;;;;;;;;;;;;;;;5008349;28;19926;-67
2021/08/05 11:39:03;;;;;;;;;;;;;;;;;;5010233;28;19929;-66
2021/08/05 11:41:30;;;;;;;;;;;;;;;;;;5012216;28;20113;-68
2021/08/05 11:43:57;;;;;;;;;;;;;;;;;;5013952;28;19970;-66
2021/08/05 11:46:29;;;;;;;;;;;;;;;;;;5014462;28;19935;-68
2021/08/05 11:48:56;;;;;;;;;;;;;;;;;;5015430;28;20374;-66
2021/08/05 11:51:23;;;;;;;;;;;;;;;;;;5013751;28;19932;-67
2021/08/05 11:53:50;;;;;;;;;;;;;;;;;;5011488;28;19984;-66
2021/08/05 11:56:17;;;;;;;;;;;;;;;;;;5012081;28;19926;-66
2021/08/05 11:58:44;;;;;;;;;;;;;;;;;;5011007;28;19925;-66
2021/08/05 12:01:11;;;;;;;;;;;;;;;;;;5008370;28;19984;-67
2021/08/05 12:03:38;;;;;;;;;;;;;;;;;;5010742;28;19940;-66
2021/08/05 12:06:05;;;;;;;;;;;;;;;;;;5012482;28;19926;-66
2021/08/05 12:08:32;;;;;;;;;;;;;;;;;;5015042;28;19933;-65
2021/08/05 12:10:59;;;;;;;;;;;;;;;;;;5013252;28;20196;-66
2021/08/05 12:13:26;;;;;;;;;;;;;;;;;;5013002;28;19947;-66
2021/08/05 12:15:53;;;;;;;;;;;;;;;;;;5012618;28;20298;-66
2021/08/05 12:18:20;;;;;;;;;;;;;;;;;;5013273;28;19925;-67
2021/08/05 12:20:47;;;;;;;;;;;;;;;;;;5014163;28;19961;-65
2021/08/05 12:23:17;;;;;;;;;;;;;;;;;;5019304;28;19932;-66
2021/08/05 12:25:46;;;;;;;;;;;;;;;;;;5025297;28;19972;-66
2021/08/05 12:28:13;;;;;;;;;;;;;;;;;;5017380;28;19929;-66
2021/08/05 12:30:40;;;;;;;;;;;;;;;;;;5018498;28;19925;-66
2021/08/05 12:33:07;;;;;;;;;;;;;;;;;;5021110;28;19929;-67
2021/08/05 12:35:34;;;;;;;;;;;;;;;;;;5021433;28;20064;-69
2021/08/05 12:38:01;;;;;;;;;;;;;;;;;;5023472;28;20304;-66
2021/08/05 12:40:28;;;;;;;;;;;;;;;;;;5018475;28;19929;-66
2021/08/05 12:42:55;;;;;;;;;;;;;;;;;;5019273;28;20345;-66
2021/08/05 12:45:22;;;;;;;;;;;;;;;;;;5018845;28;19925;-66
2021/08/05 12:47:49;;;;;;;;;;;;;;;;;;5016977;28;19932;-66
2021/08/05 12:50:16;;;;;;;;;;;;;;;;;;5016028;28;20374;-65
2021/08/05 12:52:43;;;;;;;;;;;;;;;;;;5015754;28;20301;-66
2021/08/05 12:55:10;;;;;;;;;;;;;;;;;;5012489;28;19933;-66
2021/08/05 12:57:40;;;;;;;;;;;;;;;;;;5019720;28;19971;-66
2021/08/05 13:00:07;;;;;;;;;;;;;;;;;;5010997;28;20109;-68
2021/08/05 13:02:34;;;;;;;;;;;;;;;;;;5014245;28;19926;-66
2021/08/05 13:05:01;;;;;;;;;;;;;;;;;;5012431;28;19929;-67
2021/08/05 13:07:28;;;;;;;;;;;;;;;;;;5018144;28;19925;-66
2021/08/05 13:09:56;;;;;;;;;;;;;;;;;;5018955;28;20313;-66
2021/08/05 13:12:24;;;;;;;;;;;;;;;;;;5018559;28;19925;-67
2021/08/05 13:14:51;;;;;;;;;;;;;;;;;;5017473;28;20396;-66
2021/08/05 13:17:18;;;;;;;;;;;;;;;;;;5016106;28;19969;-67
2021/08/05 13:19:45;;;;;;;;;;;;;;;;;;5018876;28;19929;-66
2021/08/05 13:22:12;;;;;;;;;;;;;;;;;;5020478;28;19929;-66
2021/08/05 13:24:39;;;;;;;;;;;;;;;;;;5019099;28;19929;-68
2021/08/05 13:27:05;;;;;;;;;;;;;;;;;;5021320;28;19931;-66
2021/08/05 13:29:32;;;;;;;;;;;;;;;;;;5021218;28;19989;-67
2021/08/05 13:31:59;;;;;;;;;;;;;;;;;;5017787;28;20369;-65
2021/08/05 13:34:26;;;;;;;;;;;;;;;;;;5018351;28;20020;-66
2021/08/05 13:36:53;;;;;;;;;;;;;;;;;;5018799;28;19932;-67
2021/08/05 13:39:20;;;;;;;;;;;;;;;;;;5019135;28;19943;-66
2021/08/05 13:41:47;;;;;;;;;;;;;;;;;;5018580;28;19932;-66
2021/08/05 13:44:14;;;;;;;;;;;;;;;;;;5016939;28;20020;-67
2021/08/05 13:46:41;;;;;;;;;;;;;;;;;;5013206;28;20086;-67
2021/08/05 13:49:10;;;;;;;;;;;;;;;;;;5015298;28;20336;-67
2021/08/05 13:51:37;;;;;;;;;;;;;;;;;;5014854;28;19937;-66
2021/08/05 13:54:04;;;;;;;;;;;;;;;;;;5022359;28;20392;-66
2021/08/05 13:56:34;;;;;;;;;;;;;;;;;;5016894;28;19939;-66
2021/08/05 13:59:01;;;;;;;;;;;;;;;;;;5017856;28;19972;-67
2021/08/05 14:01:28;;;;;;;;;;;;;;;;;;5016614;28;19925;-65
2021/08/05 14:03:55;;;;;;;;;;;;;;;;;;5014553;28;19925;-66
2021/08/05 14:06:22;;;;;;;;;;;;;;;;;;5024141;28;19939;-67
2021/08/05 14:08:49;;;;;;;;;;;;;;;;;;5017447;28;19925;-70
2021/08/05 14:11:17;;;;;;;;;;;;;;;;;;5017299;28;19944;-65
2021/08/05 14:13:44;;;;;;;;;;;;;;;;;;5018035;28;19933;-67
2021/08/05 14:16:11;;;;;;;;;;;;;;;;;;5012742;28;19931;-67
2021/08/05 14:18:38;;;;;;;;;;;;;;;;;;5016907;28;20375;-67
2021/08/05 14:21:05;;;;;;;;;;;;;;;;;;5008589;28;19939;-66
2021/08/05 14:23:32;;;;;;;;;;;;;;;;;;5009860;28;19929;-66
2021/08/05 14:25:59;;;;;;;;;;;;;;;;;;5009112;28;19933;-67
2021/08/05 14:28:26;;;;;;;;;;;;;;;;;;5006106;28;20287;-67
2021/08/05 14:30:55;;;;;;;;;;;;;;;;;;5011375;28;19929;-68
2021/08/05 14:33:21;;;;;;;;;;;;;;;;;;5009077;28;19976;-67
2021/08/05 14:35:48;;;;;;;;;;;;;;;;;;5006488;28;19925;-66
2021/08/05 14:38:15;;;;;;;;;;;;;;;;;;5013622;28;19951;-67
2021/08/05 14:40:42;;;;;;;;;;;;;;;;;;5009546;28;19926;-66
2021/08/05 14:43:09;;;;;;;;;;;;;;;;;;5013907;28;20290;-66
2021/08/05 14:45:37;;;;;;;;;;;;;;;;;;5015938;28;19933;-67
2021/08/05 14:48:04;;;;;;;;;;;;;;;;;;5015308;28;19942;-67
2021/08/05 14:50:31;;;;;;;;;;;;;;;;;;5014015;28;20301;-67
2021/08/05 14:52:58;;;;;;;;;;;;;;;;;;5011570;28;20409;-67
2021/08/05 14:55:25;;;;;;;;;;;;;;;;;;5012862;28;19926;-67
2021/08/05 14:57:51;;;;;;;;;;;;;;;;;;5016617;28;19972;-65
2021/08/05 15:00:18;;;;;;;;;;;;;;;;;;5014136;28;19925;-67
2021/08/05 15:02:45;;;;;;;;;;;;;;;;;;5009449;28;19929;-65
2021/08/05 15:05:12;;;;;;;;;;;;;;;;;;5013290;28;19947;-67
2021/08/05 15:07:39;;;;;;;;;;;;;;;;;;5015135;28;20378;-66
2021/08/05 15:10:06;;;;;;;;;;;;;;;;;;5009507;28;19933;-67
2021/08/05 15:12:33;;;;;;;;;;;;;;;;;;5011737;28;19933;-66
2021/08/05 15:15:00;;;;;;;;;;;;;;;;;;5012339;28;20306;-67
2021/08/05 15:17:27;;;;;;;;;;;;;;;;;;5009011;28;20465;-66
2021/08/05 15:19:54;;;;;;;;;;;;;;;;;;5015913;28;19929;-67
2021/08/05 15:22:21;;;;;;;;;;;;;;;;;;5015938;28;19925;-66
2021/08/05 15:24:48;;;;;;;;;;;;;;;;;;5013559;28;20293;-66
2021/08/05 15:27:14;;;;;;;;;;;;;;;;;;5016947;28;19934;-66
2021/08/05 15:29:41;;;;;;;;;;;;;;;;;;5015627;28;19929;-66
2021/08/05 15:32:08;;;;;;;;;;;;;;;;;;5011951;28;20012;-68
2021/08/05 15:34:35;;;;;;;;;;;;;;;;;;5014656;28;19929;-66
2021/08/05 15:37:02;;;;;;;;;;;;;;;;;;5011191;28;19930;-66
2021/08/05 15:39:30;;;;;;;;;;;;;;;;;;5014820;28;19925;-67
2021/08/05 15:41:57;;;;;;;;;;;;;;;;;;5011436;28;19933;-67
2021/08/05 15:44:27;;;;;;;;;;;;;;;;;;5007715;28;19930;-66
2021/08/05 15:46:54;;;;;;;;;;;;;;;;;;5007189;28;19925;-65
2021/08/05 15:49:21;;;;;;;;;;;;;;;;;;5009452;28;20441;-65
2021/08/05 15:51:48;;;;;;;;;;;;;;;;;;5009758;28;19925;-67
2021/08/05 15:54:16;;;;;;;;;;;;;;;;;;5010026;28;19929;-66
2021/08/05 15:56:43;;;;;;;;;;;;;;;;;;5016452;28;19926;-67
2021/08/05 15:59:11;;;;;;;;;;;;;;;;;;5005938;28;19925;-66
2021/08/05 16:01:38;;;;;;;;;;;;;;;;;;5004109;28;19945;-65
2021/08/05 16:04:05;;;;;;;;;;;;;;;;;;5011339;28;19936;-65
2021/08/05 16:06:32;;;;;;;;;;;;;;;;;;5011865;28;19949;-65
2021/08/05 16:08:59;;;;;;;;;;;;;;;;;;5007873;28;20016;-65
2021/08/05 16:11:25;;;;;;;;;;;;;;;;;;5001977;28;19926;-66
2021/08/05 16:13:52;;;;;;;;;;;;;;;;;;5007063;28;19926;-66
2021/08/05 16:16:19;;;;;;;;;;;;;;;;;;5011961;28;19931;-66
2021/08/05 16:18:46;;;;;;;;;;;;;;;;;;5010209;28;19925;-66
2021/08/05 16:21:13;;;;;;;;;;;;;;;;;;5006366;28;19931;-66
2021/08/05 16:23:40;;;;;;;;;;;;;;;;;;5002051;28;19926;-67
2021/08/05 16:26:07;;;;;;;;;;;;;;;;;;5000154;28;19933;-67
2021/08/05 16:28:34;;;;;;;;;;;;;;;;;;5010369;28;20412;-65
2021/08/05 16:31:01;;;;;;;;;;;;;;;;;;5012255;28;19932;-66
2021/08/05 16:33:28;;;;;;;;;;;;;;;;;;5017247;28;19926;-68
2021/08/05 16:35:55;;;;;;;;;;;;;;;;;;5015066;28;19926;-66
2021/08/05 16:38:22;;;;;;;;;;;;;;;;;;5014042;28;19925;-63
2021/08/05 16:40:49;;;;;;;;;;;;;;;;;;5007524;28;19932;-66
2021/08/05 16:43:15;;;;;;;;;;;;;;;;;;5006017;28;20033;-68